TimeAKDT,TemperatureF,Dew PointF,Humidity,Sea Level PressureIn,VisibilityMPH,Wind Direction,Wind SpeedMPH,Gust SpeedMPH,PrecipitationIn,Events,Conditions,WindDirDegrees,DateUTC
12:07 AM,55.4,53.6,94,29.95,10.0,Calm,Calm,-,N/A,,Mostly Cloudy,0,2013-09-05 08:07:00
12:16 AM,55.4,53.6,94,29.95,10.0,Calm,Calm,-,N/A,,Mostly Cloudy,0,2013-09-05 08:16:00
12:25 AM,55.4,53.6,94,29.95,10.0,Calm,Calm,-,N/A,,Overcast,0,2013-09-05 08:25:00
12:53 AM,54.0,54.0,100,29.97,9.0,Calm,Calm,-,N/A,,Mostly Cloudy,0,2013-09-05 08:53:00
1:53 AM,53.1,53.1,100,29.99,7.0,Calm,Calm,-,N/A,,Overcast,0,2013-09-05 09:53:00
2:10 AM,53.6,53.6,100,29.99,9.0,Calm,Calm,-,N/A,,Overcast,0,2013-09-05 10:10:00
2:33 AM,53.6,53.6,100,30.00,9.0,SE,3.5,-,N/A,,Overcast,140,2013-09-05 10:33:00
2:53 AM,54.0,54.0,100,30.00,8.0,Calm,Calm,-,N/A,,Overcast,0,2013-09-05 10:53:00
3:20 AM,53.6,53.6,100,30.01,9.0,Calm,Calm,-,N/A,,Overcast,0,2013-09-05 11:20:00
3:53 AM,54.0,53.1,97,30.01,9.0,Calm,Calm,-,N/A,,Overcast,0,2013-09-05 11:53:00
4:09 AM,53.6,53.6,100,30.02,8.0,Calm,Calm,-,N/A,,Overcast,0,2013-09-05 12:09:00
4:25 AM,53.6,53.6,100,30.02,4.0,Calm,Calm,-,0.01,Rain,Light Rain,0,2013-09-05 12:25:00
4:53 AM,53.1,53.1,100,30.03,6.0,Calm,Calm,-,0.01,,Overcast,0,2013-09-05 12:53:00
5:40 AM,53.6,53.6,100,30.04,1.8,ENE,3.5,-,N/A,,Overcast,70,2013-09-05 13:40:00
5:46 AM,51.8,51.8,100,30.04,0.8,East,3.5,-,N/A,,Overcast,80,2013-09-05 13:46:00
5:53 AM,52.0,52.0,100,30.05,0.8,Variable,3.5,-,N/A,,Mist,0,2013-09-05 13:53:00
6:25 AM,51.8,51.8,100,30.05,0.2,Calm,Calm,-,N/A,Fog,Fog,0,2013-09-05 14:25:00
6:44 AM,51.8,51.8,100,30.06,0.2,Calm,Calm,-,N/A,Fog,Fog,0,2013-09-05 14:44:00
6:53 AM,52.0,52.0,100,30.06,0.2,ENE,3.5,-,N/A,Fog,Fog,70,2013-09-05 14:53:00
7:13 AM,51.8,51.8,100,30.06,0.2,ENE,3.5,-,N/A,Fog,Fog,70,2013-09-05 15:13:00
7:53 AM,52.0,52.0,100,30.08,0.2,East,4.6,-,N/A,Fog,Fog,80,2013-09-05 15:53:00
8:09 AM,53.6,53.6,100,30.08,0.8,East,3.5,-,N/A,,Mist,80,2013-09-05 16:09:00
8:21 AM,53.6,53.6,100,30.09,3.0,East,4.6,-,N/A,,Overcast,100,2013-09-05 16:21:00
8:53 AM,53.1,53.1,100,30.10,6.0,ESE,3.5,-,N/A,,Overcast,110,2013-09-05 16:53:00
9:53 AM,54.0,54.0,100,30.12,10.0,East,3.5,-,N/A,,Overcast,100,2013-09-05 17:53:00
10:11 AM,55.4,53.6,94,30.11,10.0,Variable,3.5,-,N/A,,Overcast,0,2013-09-05 18:11:00
10:53 AM,57.0,55.0,93,30.13,10.0,ESE,3.5,-,N/A,,Overcast,110,2013-09-05 18:53:00
11:23 AM,57.2,55.4,94,30.13,10.0,SE,3.5,-,N/A,,Overcast,130,2013-09-05 19:23:00
11:45 AM,57.2,55.4,94,30.13,10.0,SE,4.6,-,N/A,,Overcast,140,2013-09-05 19:45:00
11:53 AM,59.0,55.0,87,30.13,10.0,SE,5.8,-,N/A,,Mostly Cloudy,130,2013-09-05 19:53:00
12:40 PM,60.8,53.6,77,30.13,10.0,SSE,3.5,-,N/A,,Overcast,160,2013-09-05 20:40:00
12:53 PM,59.0,54.0,83,30.14,10.0,South,4.6,-,N/A,,Mostly Cloudy,180,2013-09-05 20:53:00
1:53 PM,59.0,54.0,83,30.16,10.0,Calm,Calm,-,N/A,,Mostly Cloudy,0,2013-09-05 21:53:00
2:53 PM,59.0,54.0,83,30.16,10.0,Calm,Calm,-,N/A,,Mostly Cloudy,0,2013-09-05 22:53:00
3:05 PM,57.2,53.6,88,30.16,10.0,North,4.6,-,N/A,,Overcast,10,2013-09-05 23:05:00
3:44 PM,57.2,53.6,88,30.16,10.0,Calm,Calm,-,N/A,,Overcast,0,2013-09-05 23:44:00
3:53 PM,57.9,53.1,84,30.16,10.0,North,3.5,-,N/A,,Overcast,350,2013-09-05 23:53:00
4:41 PM,59.0,53.6,82,30.15,10.0,Calm,Calm,-,N/A,,Overcast,0,2013-09-06 00:41:00
4:53 PM,59.0,55.0,87,30.14,10.0,NE,3.5,-,N/A,,Mostly Cloudy,40,2013-09-06 00:53:00
5:15 PM,57.2,53.6,88,30.14,10.0,ENE,4.6,-,N/A,,Mostly Cloudy,60,2013-09-06 01:15:00
5:25 PM,57.2,53.6,88,30.14,10.0,ENE,4.6,-,N/A,,Overcast,70,2013-09-06 01:25:00
5:53 PM,59.0,54.0,83,30.15,10.0,ESE,5.8,-,N/A,,Overcast,120,2013-09-06 01:53:00
6:14 PM,59.0,53.6,82,30.15,10.0,East,4.6,-,N/A,,Overcast,100,2013-09-06 02:14:00
6:31 PM,57.2,53.6,88,30.15,10.0,Calm,Calm,-,N/A,,Mostly Cloudy,0,2013-09-06 02:31:00
6:53 PM,57.9,53.1,84,30.14,10.0,East,5.8,-,N/A,,Overcast,100,2013-09-06 02:53:00
7:00 PM,57.2,53.6,88,30.14,10.0,East,4.6,-,N/A,,Overcast,100,2013-09-06 03:00:00
7:36 PM,57.2,53.6,88,30.14,10.0,ENE,5.8,-,N/A,,Overcast,70,2013-09-06 03:36:00
7:53 PM,55.9,52.0,87,30.14,10.0,ENE,5.8,-,N/A,,Overcast,60,2013-09-06 03:53:00
8:21 PM,55.4,51.8,88,30.14,10.0,ENE,4.6,-,N/A,,Mostly Cloudy,70,2013-09-06 04:21:00
8:53 PM,54.0,52.0,93,30.15,10.0,ENE,3.5,-,N/A,,Overcast,60,2013-09-06 04:53:00
9:53 PM,54.0,51.1,90,30.14,10.0,East,4.6,-,N/A,,Overcast,80,2013-09-06 05:53:00
10:53 PM,53.1,50.0,89,30.14,10.0,East,4.6,-,N/A,,Overcast,90,2013-09-06 06:53:00
11:17 PM,53.6,50.0,88,30.13,10.0,ENE,3.5,-,N/A,,Overcast,70,2013-09-06 07:17:00
11:40 PM,53.6,50.0,88,30.13,10.0,ENE,4.6,-,0.00,Rain,Light Rain,70,2013-09-06 07:40:00
11:53 PM,52.0,50.0,93,30.12,10.0,ENE,6.9,-,0.00,Rain,Light Rain,70,2013-09-06 07:53:00